Time;durP1;ratioP1;P1;durP2;ratioP2;P2;SDS_P1;SDS_P2;PMS_P1;PMS_P2;Temp;Humidity;BMP_temperature;BMP_pressure;BME280_temperature;BME280_humidity;BME280_pressure;Samples;Min_cycle;Max_cycle;Signal;HPM_P1;HPM_P2
2021/11/25 00:02:53;;;;;;;35.73;20.97;;;;;;;;;;4953853;28;20647;-87
2021/11/25 00:05:57;;;;;;;30.10;20.97;;;;;;;;;;4954164;28;20566;-91
2021/11/25 00:09:02;;;;;;;30.37;20.17;;;;;;;;;;4954296;28;20984;-87
2021/11/25 00:12:07;;;;;;;35.97;23.50;;;;;;;;;;4942999;28;20558;-87
2021/11/25 00:15:12;;;;;;;41.90;24.67;;;;;;;;;;4942204;28;20591;-90
2021/11/25 00:18:18;;;;;;;34.30;21.67;;;;;;;;;;4953947;28;20980;-86
2021/11/25 00:21:22;;;;;;;38.33;23.07;;;;;;;;;;4964628;28;20625;-90
2021/11/25 00:24:27;;;;;;;40.13;25.60;;;;;;;;;;4953743;28;20641;-90
2021/11/25 00:27:31;;;;;;;45.57;27.47;;;;;;;;;;4953382;28;20601;-90
2021/11/25 00:30:35;;;;;;;43.53;26.63;;;;;;;;;;4953234;28;20597;-91
2021/11/25 00:33:39;;;;;;;49.93;29.50;;;;;;;;;;4953785;28;20569;-91
2021/11/25 00:36:43;;;;;;;48.87;28.10;;;;;;;;;;4942214;28;20558;-87
2021/11/25 00:39:47;;;;;;;51.33;30.07;;;;;;;;;;4963862;28;20638;-87
2021/11/25 00:42:51;;;;;;;51.37;29.83;;;;;;;;;;4941687;28;20633;-91
2021/11/25 00:45:56;;;;;;;53.40;30.37;;;;;;;;;;4942232;28;21188;-91
2021/11/25 00:49:00;;;;;;;53.73;30.07;;;;;;;;;;4952978;28;20996;-91
2021/11/25 00:52:04;;;;;;;56.77;31.77;;;;;;;;;;4942073;28;20633;-91
2021/11/25 00:55:09;;;;;;;52.43;30.77;;;;;;;;;;4963930;28;20601;-91
2021/11/25 00:58:15;;;;;;;52.40;29.97;;;;;;;;;;4941288;28;20672;-91
2021/11/25 01:01:19;;;;;;;50.60;28.93;;;;;;;;;;4964759;28;20550;-86
2021/11/25 01:04:24;;;;;;;52.20;29.43;;;;;;;;;;4953511;28;20606;-90
2021/11/25 01:07:28;;;;;;;50.30;29.90;;;;;;;;;;4952965;28;20585;-86
2021/11/25 01:10:33;;;;;;;48.33;27.77;;;;;;;;;;4952485;28;20613;-87
2021/11/25 01:13:37;;;;;;;51.30;29.60;;;;;;;;;;4941871;28;20538;-87
2021/11/25 01:16:42;;;;;;;52.07;29.00;;;;;;;;;;4963685;28;20613;-87
2021/11/25 01:19:46;;;;;;;47.20;28.43;;;;;;;;;;4952636;28;21211;-91
2021/11/25 01:22:51;;;;;;;48.07;28.00;;;;;;;;;;4940625;28;21163;-91
2021/11/25 01:25:57;;;;;;;42.63;25.13;;;;;;;;;;4951845;28;20605;-87
2021/11/25 01:29:01;;;;;;;48.17;27.17;;;;;;;;;;4941778;28;20637;-87
2021/11/25 01:32:06;;;;;;;42.73;26.37;;;;;;;;;;4952943;28;20709;-91
2021/11/25 01:35:11;;;;;;;44.57;26.43;;;;;;;;;;4942018;28;20558;-87
2021/11/25 01:38:15;;;;;;;46.67;27.07;;;;;;;;;;4941575;28;20661;-90
2021/11/25 01:41:20;;;;;;;46.23;26.87;;;;;;;;;;4933517;29;21198;-91
2021/11/25 01:44:24;;;;;;;49.23;26.90;;;;;;;;;;4925952;28;20644;-91
2021/11/25 01:47:28;;;;;;;43.60;26.03;;;;;;;;;;4952176;28;20613;-87
2021/11/25 01:50:34;;;;;;;39.73;24.37;;;;;;;;;;4941674;28;21124;-91
2021/11/25 01:53:38;;;;;;;34.60;22.67;;;;;;;;;;4941238;28;20559;-91
2021/11/25 01:56:44;;;;;;;36.53;21.63;;;;;;;;;;4951722;28;20605;-90
2021/11/25 01:59:48;;;;;;;35.43;21.30;;;;;;;;;;4951847;28;20646;-91
2021/11/25 02:02:53;;;;;;;34.87;21.03;;;;;;;;;;4952198;28;20551;-87
2021/11/25 02:05:57;;;;;;;39.60;23.67;;;;;;;;;;4952154;28;20563;-87
2021/11/25 02:09:04;;;;;;;36.73;22.87;;;;;;;;;;4941197;28;20637;-91
2021/11/25 02:12:08;;;;;;;33.93;20.77;;;;;;;;;;4941111;28;20608;-87
2021/11/25 02:15:14;;;;;;;39.23;22.50;;;;;;;;;;4941232;28;21098;-87
2021/11/25 02:18:22;;;;;;;34.83;21.80;;;;;;;;;;4941307;28;20624;-90
2021/11/25 02:21:28;;;;;;;37.57;22.13;;;;;;;;;;4940379;28;20607;-91
2021/11/25 02:24:33;;;;;;;36.63;22.30;;;;;;;;;;4941024;28;20957;-91
2021/11/25 02:27:37;;;;;;;35.77;22.10;;;;;;;;;;4941619;28;20553;-89
2021/11/25 02:30:41;;;;;;;37.10;22.37;;;;;;;;;;4940432;28;20606;-87
2021/11/25 02:33:45;;;;;;;36.67;22.00;;;;;;;;;;4933240;29;20538;-87
2021/11/25 02:36:49;;;;;;;31.17;19.93;;;;;;;;;;4933260;28;20546;-86
2021/11/25 02:39:54;;;;;;;32.50;19.87;;;;;;;;;;4946973;29;20643;-91
2021/11/25 02:43:04;;;;;;;34.70;22.33;;;;;;;;;;4925532;29;20562;-90
2021/11/25 02:46:13;;;;;;;38.03;22.87;;;;;;;;;;4936156;29;20563;-91
2021/11/25 02:49:17;;;;;;;33.70;20.97;;;;;;;;;;4947190;29;20627;-86
2021/11/25 02:52:25;;;;;;;34.20;21.47;;;;;;;;;;4936364;29;20554;-87
2021/11/25 02:55:29;;;;;;;36.27;20.53;;;;;;;;;;4945739;28;21168;-90
2021/11/25 02:58:34;;;;;;;34.73;21.73;;;;;;;;;;4955487;28;20993;-86
2021/11/25 03:01:38;;;;;;;37.53;22.73;;;;;;;;;;4944289;28;20549;-91
2021/11/25 03:04:42;;;;;;;35.60;21.20;;;;;;;;;;4942858;28;20658;-91
2021/11/25 03:07:46;;;;;;;38.77;22.57;;;;;;;;;;4944216;28;20545;-91
2021/11/25 03:10:54;;;;;;;34.83;20.90;;;;;;;;;;4955154;28;20563;-91
2021/11/25 03:14:03;;;;;;;33.20;20.83;;;;;;;;;;4954767;28;20554;-90
2021/11/25 03:17:07;;;;;;;34.73;20.53;;;;;;;;;;4954549;28;20954;-91
2021/11/25 03:20:12;;;;;;;34.63;21.00;;;;;;;;;;4944035;28;20567;-90
2021/11/25 03:23:17;;;;;;;33.63;20.17;;;;;;;;;;4943217;28;20604;-91
2021/11/25 03:26:23;;;;;;;30.43;19.53;;;;;;;;;;4935354;29;20562;-91
2021/11/25 03:29:27;;;;;;;32.03;19.63;;;;;;;;;;4935133;29;21225;-91
2021/11/25 03:32:31;;;;;;;32.63;19.33;;;;;;;;;;4953394;28;20594;-91
2021/11/25 03:35:36;;;;;;;32.53;20.43;;;;;;;;;;4953737;28;20597;-91
2021/11/25 03:38:40;;;;;;;33.63;19.70;;;;;;;;;;4954263;28;20644;-91
2021/11/25 03:41:45;;;;;;;37.10;20.13;;;;;;;;;;4954257;28;20561;-91
2021/11/25 03:44:50;;;;;;;35.03;20.33;;;;;;;;;;4942665;28;20664;-90
2021/11/25 03:47:54;;;;;;;33.00;19.57;;;;;;;;;;4943173;28;20546;-91
2021/11/25 03:51:04;;;;;;;32.97;19.80;;;;;;;;;;4942319;28;20613;-91
2021/11/25 03:54:08;;;;;;;31.40;19.17;;;;;;;;;;4943392;28;20615;-91
2021/11/25 03:57:13;;;;;;;31.53;19.07;;;;;;;;;;4964112;28;20571;-89
2021/11/25 04:00:20;;;;;;;32.00;19.20;;;;;;;;;;4954003;28;21095;-91
2021/11/25 04:03:24;;;;;;;33.50;18.63;;;;;;;;;;4965190;28;20686;-91
2021/11/25 04:06:29;;;;;;;34.20;20.27;;;;;;;;;;4943108;28;20550;-87
2021/11/25 04:09:34;;;;;;;32.17;18.83;;;;;;;;;;4953859;28;20661;-90
2021/11/25 04:12:37;;;;;;;39.07;21.47;;;;;;;;;;4954209;28;20633;-91
2021/11/25 04:15:42;;;;;;;36.37;19.93;;;;;;;;;;4953966;28;20614;-86
2021/11/25 04:18:46;;;;;;;36.57;20.67;;;;;;;;;;4942318;28;20772;-87
2021/11/25 04:21:51;;;;;;;36.40;20.70;;;;;;;;;;4953801;28;20557;-90
2021/11/25 04:24:56;;;;;;;39.70;21.27;;;;;;;;;;4952994;28;20633;-90
2021/11/25 04:28:03;;;;;;;37.57;21.83;;;;;;;;;;4942683;28;20547;-86
2021/11/25 04:37:52;;;;;;;38.50;21.07;;;;;;;;;;4935336;28;20610;-91
2021/11/25 04:41:00;;;;;;;40.50;21.63;;;;;;;;;;4943257;28;20554;-86
2021/11/25 04:44:04;;;;;;;40.03;22.10;;;;;;;;;;4953881;28;20605;-87
2021/11/25 04:47:10;;;;;;;38.93;21.73;;;;;;;;;;4942424;28;20557;-86
2021/11/25 04:50:15;;;;;;;37.60;21.10;;;;;;;;;;4934270;29;20907;-87
2021/11/25 04:53:19;;;;;;;42.20;23.10;;;;;;;;;;4950393;28;20593;-86
2021/11/25 04:56:23;;;;;;;40.93;22.90;;;;;;;;;;4953007;28;20998;-90
2021/11/25 04:59:28;;;;;;;42.13;23.40;;;;;;;;;;4953055;28;20625;-87
2021/11/25 05:02:32;;;;;;;41.37;22.93;;;;;;;;;;4942314;28;20628;-90
2021/11/25 05:05:38;;;;;;;42.70;23.53;;;;;;;;;;4942466;28;20661;-87
2021/11/25 05:08:42;;;;;;;43.30;24.57;;;;;;;;;;4941812;28;20644;-87
2021/11/25 05:11:46;;;;;;;38.50;21.63;;;;;;;;;;4953528;28;20586;-87
2021/11/25 05:14:51;;;;;;;38.30;22.03;;;;;;;;;;4942508;28;20549;-87
2021/11/25 05:17:55;;;;;;;37.13;21.87;;;;;;;;;;4952812;28;20545;-91
2021/11/25 05:21:00;;;;;;;36.43;21.23;;;;;;;;;;4933284;29;20609;-87
2021/11/25 05:24:03;;;;;;;37.37;21.00;;;;;;;;;;4933597;29;20542;-91
2021/11/25 05:27:10;;;;;;;34.07;20.27;;;;;;;;;;4933792;29;20551;-87
2021/11/25 05:30:16;;;;;;;35.23;20.43;;;;;;;;;;4933806;29;20566;-87
2021/11/25 05:33:21;;;;;;;38.37;21.10;;;;;;;;;;4922565;29;20598;-87
2021/11/25 05:36:25;;;;;;;33.83;19.67;;;;;;;;;;4922370;29;20915;-91
2021/11/25 05:39:29;;;;;;;37.97;20.80;;;;;;;;;;4941012;28;21016;-91
2021/11/25 05:42:35;;;;;;;32.40;18.83;;;;;;;;;;4952241;28;20569;-87
2021/11/25 05:45:39;;;;;;;37.87;20.97;;;;;;;;;;4941593;28;20605;-88
2021/11/25 05:48:43;;;;;;;36.90;20.00;;;;;;;;;;4952084;28;20634;-87
2021/11/25 05:51:48;;;;;;;37.33;20.07;;;;;;;;;;4941534;28;20898;-87
2021/11/25 05:54:52;;;;;;;39.23;20.63;;;;;;;;;;4941457;28;20545;-87
2021/11/25 05:58:00;;;;;;;35.23;20.13;;;;;;;;;;4952177;28;20542;-88
2021/11/25 06:01:04;;;;;;;38.17;20.70;;;;;;;;;;4941099;28;20557;-87
2021/11/25 06:04:08;;;;;;;35.63;19.37;;;;;;;;;;4941145;28;20551;-87
2021/11/25 06:07:12;;;;;;;35.97;19.67;;;;;;;;;;4941102;28;20557;-87
2021/11/25 06:10:19;;;;;;;39.57;20.73;;;;;;;;;;4929672;28;20599;-86
2021/11/25 06:13:23;;;;;;;37.33;20.10;;;;;;;;;;4944437;28;20549;-86
2021/11/25 06:16:27;;;;;;;33.97;18.93;;;;;;;;;;4955507;28;20624;-85
2021/11/25 06:19:32;;;;;;;36.50;19.67;;;;;;;;;;4966930;28;20669;-87
2021/11/25 06:22:37;;;;;;;33.00;18.97;;;;;;;;;;4945164;28;20605;-85
2021/11/25 06:25:43;;;;;;;38.63;19.97;;;;;;;;;;4944735;28;20609;-86
2021/11/25 06:28:48;;;;;;;38.97;20.17;;;;;;;;;;4955473;28;20656;-87
2021/11/25 06:31:52;;;;;;;34.40;19.77;;;;;;;;;;4944628;28;20613;-87
2021/11/25 06:34:57;;;;;;;38.20;19.67;;;;;;;;;;4944603;28;20538;-85
2021/11/25 06:38:01;;;;;;;40.23;21.10;;;;;;;;;;4945898;28;20561;-87
2021/11/25 06:41:07;;;;;;;43.00;20.87;;;;;;;;;;4944361;28;20600;-86
2021/11/25 06:44:11;;;;;;;37.17;19.97;;;;;;;;;;4944269;28;20610;-87
2021/11/25 06:47:16;;;;;;;34.67;17.50;;;;;;;;;;4955555;28;20555;-87
2021/11/25 06:50:21;;;;;;;37.07;20.07;;;;;;;;;;4944312;28;20550;-87
2021/11/25 06:53:26;;;;;;;33.87;18.90;;;;;;;;;;4954932;28;20561;-87
2021/11/25 06:56:30;;;;;;;38.10;18.97;;;;;;;;;;4944301;28;20883;-87
2021/11/25 06:59:34;;;;;;;39.50;19.27;;;;;;;;;;4944336;28;20633;-87
2021/11/25 07:02:38;;;;;;;34.83;18.17;;;;;;;;;;4936184;29;20544;-87
2021/11/25 07:05:42;;;;;;;33.73;17.97;;;;;;;;;;4938502;28;20670;-89
2021/11/25 07:08:46;;;;;;;32.67;18.10;;;;;;;;;;4944581;28;20700;-86
2021/11/25 07:11:51;;;;;;;37.03;18.97;;;;;;;;;;4951057;28;20610;-86
2021/11/25 07:14:55;;;;;;;43.33;22.17;;;;;;;;;;4948868;28;20577;-86
2021/11/25 07:18:00;;;;;;;37.67;20.77;;;;;;;;;;4955016;28;20558;-86
2021/11/25 07:21:04;;;;;;;34.00;18.70;;;;;;;;;;4954872;28;20569;-86
2021/11/25 07:24:08;;;;;;;31.50;17.60;;;;;;;;;;4945238;28;20608;-86
2021/11/25 07:27:12;;;;;;;35.97;18.73;;;;;;;;;;4939126;28;20674;-86
2021/11/25 07:30:18;;;;;;;41.17;20.37;;;;;;;;;;4940463;28;20598;-86
2021/11/25 07:33:22;;;;;;;37.77;19.13;;;;;;;;;;4939723;28;20610;-86
2021/11/25 07:36:26;;;;;;;33.93;18.13;;;;;;;;;;4935520;29;20560;-86
2021/11/25 07:39:31;;;;;;;33.87;19.27;;;;;;;;;;4935302;29;20660;-86
2021/11/25 07:42:35;;;;;;;32.53;18.23;;;;;;;;;;4946226;29;20572;-86
2021/11/25 07:45:39;;;;;;;30.57;17.20;;;;;;;;;;4935129;29;20618;-86
2021/11/25 07:48:43;;;;;;;33.33;17.37;;;;;;;;;;4924359;29;20637;-86
2021/11/25 07:51:47;;;;;;;38.03;19.00;;;;;;;;;;4934931;29;20609;-86
2021/11/25 07:54:51;;;;;;;33.50;18.40;;;;;;;;;;4934820;29;20562;-86
2021/11/25 07:57:56;;;;;;;33.20;18.03;;;;;;;;;;4924074;29;20564;-86
2021/11/25 08:01:00;;;;;;;31.97;17.83;;;;;;;;;;4947425;28;20638;-86
2021/11/25 08:04:04;;;;;;;32.13;17.70;;;;;;;;;;4954188;28;20913;-86
2021/11/25 08:07:09;;;;;;;32.87;16.90;;;;;;;;;;4961636;28;20567;-86
2021/11/25 08:10:14;;;;;;;27.37;15.87;;;;;;;;;;4950968;28;20581;-87
2021/11/25 08:13:18;;;;;;;29.53;16.67;;;;;;;;;;4939399;28;20633;-86
2021/11/25 08:16:22;;;;;;;33.57;18.57;;;;;;;;;;4950925;28;20577;-86
2021/11/25 08:19:27;;;;;;;32.63;17.50;;;;;;;;;;4961394;28;20644;-86
2021/11/25 08:22:31;;;;;;;34.57;18.27;;;;;;;;;;4940462;28;20569;-86
2021/11/25 08:25:36;;;;;;;36.57;18.93;;;;;;;;;;4950537;28;20629;-87
2021/11/25 08:28:41;;;;;;;37.33;20.30;;;;;;;;;;4938663;28;20677;-87
2021/11/25 08:31:45;;;;;;;33.03;18.07;;;;;;;;;;4960697;28;20606;-86
2021/11/25 08:34:49;;;;;;;36.83;17.60;;;;;;;;;;4938325;28;20620;-86
2021/11/25 08:37:55;;;;;;;39.33;18.80;;;;;;;;;;4943253;29;20619;-86
2021/11/25 08:41:01;;;;;;;35.57;19.17;;;;;;;;;;4934097;28;20575;-87
2021/11/25 08:44:05;;;;;;;51.23;21.73;;;;;;;;;;4922900;29;20586;-87
2021/11/25 08:47:09;;;;;;;31.97;17.47;;;;;;;;;;4952368;28;20633;-87
2021/11/25 08:50:16;;;;;;;34.30;18.57;;;;;;;;;;4942011;28;20616;-86
2021/11/25 08:53:23;;;;;;;30.07;16.77;;;;;;;;;;4953270;28;20632;-87
2021/11/25 08:56:28;;;;;;;34.27;17.97;;;;;;;;;;4953482;28;20542;-86
2021/11/25 08:59:32;;;;;;;32.27;16.93;;;;;;;;;;4952969;28;20638;-86
2021/11/25 09:02:37;;;;;;;31.20;17.80;;;;;;;;;;4942809;28;20551;-86
2021/11/25 09:05:41;;;;;;;33.37;17.87;;;;;;;;;;4959874;28;20641;-86
2021/11/25 09:08:45;;;;;;;33.43;18.07;;;;;;;;;;4933756;29;20635;-86
2021/11/25 09:11:49;;;;;;;36.23;18.50;;;;;;;;;;4933651;29;20558;-86
2021/11/25 09:14:53;;;;;;;31.43;17.53;;;;;;;;;;4934164;29;20556;-86
2021/11/25 09:17:59;;;;;;;32.07;16.67;;;;;;;;;;4945080;29;20547;-86
2021/11/25 09:21:03;;;;;;;33.03;17.73;;;;;;;;;;4933595;29;20606;-86
2021/11/25 09:24:08;;;;;;;28.67;16.10;;;;;;;;;;4944434;29;20619;-86
2021/11/25 09:27:12;;;;;;;29.70;16.77;;;;;;;;;;4933276;29;20618;-87
2021/11/25 09:30:18;;;;;;;29.33;16.03;;;;;;;;;;4944588;29;20942;-86
2021/11/25 09:33:23;;;;;;;29.17;15.67;;;;;;;;;;4933337;29;20552;-86
2021/11/25 09:36:29;;;;;;;29.30;15.33;;;;;;;;;;4944222;29;21086;-85
2021/11/25 09:39:33;;;;;;;29.27;16.47;;;;;;;;;;4941105;28;20684;-86
2021/11/25 09:42:37;;;;;;;33.60;17.60;;;;;;;;;;4935168;28;20612;-86
2021/11/25 09:45:44;;;;;;;27.50;16.20;;;;;;;;;;4943853;29;20967;-86
2021/11/25 09:48:48;;;;;;;29.97;15.57;;;;;;;;;;4932788;29;21216;-86
2021/11/25 09:51:54;;;;;;;29.00;16.20;;;;;;;;;;4958438;28;20711;-86
2021/11/25 09:54:58;;;;;;;33.40;16.87;;;;;;;;;;4932988;29;20642;-86
2021/11/25 09:58:04;;;;;;;33.43;17.53;;;;;;;;;;4933000;29;20632;-86
2021/11/25 10:01:11;;;;;;;30.40;17.00;;;;;;;;;;4932765;29;20567;-86
2021/11/25 10:04:15;;;;;;;31.80;16.30;;;;;;;;;;4933139;29;20566;-86
2021/11/25 10:07:31;;;;;;;32.70;16.40;;;;;;;;;;4934057;28;20620;-86
2021/11/25 10:10:36;;;;;;;34.43;17.70;;;;;;;;;;4944620;28;21173;-86
2021/11/25 10:13:45;;;;;;;38.00;18.97;;;;;;;;;;4947079;28;20609;-86
2021/11/25 10:16:50;;;;;;;30.63;16.17;;;;;;;;;;4937022;28;20977;-86
2021/11/25 10:20:08;;;;;;;30.00;16.47;;;;;;;;;;4937075;28;21032;-86
2021/11/25 10:23:24;;;;;;;30.93;17.20;;;;;;;;;;4949039;28;20611;-86
2021/11/25 10:26:29;;;;;;;33.40;17.60;;;;;;;;;;4948411;28;20657;-88
2021/11/25 10:29:33;;;;;;;69.60;27.00;;;;;;;;;;4948242;28;20632;-86
2021/11/25 10:32:38;;;;;;;34.33;18.43;;;;;;;;;;4948456;28;20577;-87
2021/11/25 10:35:53;;;;;;;30.60;15.83;;;;;;;;;;4937664;28;21151;-86
2021/11/25 10:39:04;;;;;;;26.90;15.20;;;;;;;;;;4948282;28;20644;-87
2021/11/25 10:42:09;;;;;;;27.93;15.77;;;;;;;;;;4947899;28;21164;-86
2021/11/25 11:56:42;;;;;;;35.43;18.83;;;;;;;;;;5097126;28;20618;-73
2021/11/25 11:59:46;;;;;;;30.83;16.07;;;;;;;;;;5109573;28;21273;-72
2021/11/25 12:02:56;;;;;;;29.73;15.80;;;;;;;;;;5090188;28;20545;-73
2021/11/25 12:06:00;;;;;;;30.77;16.17;;;;;;;;;;5092685;28;20554;-73
2021/11/25 12:09:28;;;;;;;32.53;15.80;;;;;;;;;;5110017;28;20922;-73
2021/11/25 12:12:33;;;;;;;28.17;14.87;;;;;;;;;;5097717;28;20571;-73
2021/11/25 12:15:37;;;;;;;30.90;16.00;;;;;;;;;;5104797;28;20588;-73
2021/11/25 12:18:42;;;;;;;25.77;13.57;;;;;;;;;;5087305;28;20609;-73
2021/11/25 12:21:49;;;;;;;30.60;15.67;;;;;;;;;;5073805;28;21307;-72
2021/11/25 12:25:01;;;;;;;27.83;14.57;;;;;;;;;;5085961;28;20553;-73
2021/11/25 12:28:27;;;;;;;28.27;14.97;;;;;;;;;;5085933;28;20915;-73
2021/11/25 12:31:42;;;;;;;25.33;14.57;;;;;;;;;;5061796;28;20573;-72
2021/11/25 12:34:46;;;;;;;27.33;15.13;;;;;;;;;;5085775;28;20561;-73
2021/11/25 12:38:13;;;;;;;25.87;15.10;;;;;;;;;;5085774;28;20604;-73
2021/11/25 12:41:16;;;;;;;25.83;13.43;;;;;;;;;;5085778;28;21176;-72
2021/11/25 12:44:20;;;;;;;26.13;13.80;;;;;;;;;;5085603;28;20561;-73
2021/11/25 12:47:24;;;;;;;26.37;13.77;;;;;;;;;;5085597;28;20553;-73
2021/11/25 12:50:29;;;;;;;29.37;15.07;;;;;;;;;;5067791;28;20628;-72
2021/11/25 12:53:38;;;;;;;22.40;12.87;;;;;;;;;;5078272;28;20628;-73
2021/11/25 12:56:43;;;;;;;23.37;13.37;;;;;;;;;;5079793;28;20552;-72
2021/11/25 12:59:47;;;;;;;27.50;14.13;;;;;;;;;;5094194;28;20668;-72
2021/11/25 13:03:05;;;;;;;29.93;14.70;;;;;;;;;;5095397;28;20588;-73
2021/11/25 13:06:11;;;;;;;28.70;15.10;;;;;;;;;;5068551;28;20582;-72
2021/11/25 13:09:21;;;;;;;29.13;15.33;;;;;;;;;;5085539;28;20652;-72
2021/11/25 13:12:25;;;;;;;26.97;14.60;;;;;;;;;;5083077;28;20882;-73
2021/11/25 13:15:30;;;;;;;28.73;15.47;;;;;;;;;;5074153;28;20589;-73
2021/11/25 13:18:54;;;;;;;29.17;16.20;;;;;;;;;;5081858;28;20589;-73
2021/11/25 13:22:10;;;;;;;35.53;17.23;;;;;;;;;;5083130;28;20537;-73
2021/11/25 13:25:17;;;;;;;33.17;16.60;;;;;;;;;;5091045;28;20589;-72
2021/11/25 13:28:33;;;;;;;34.50;17.47;;;;;;;;;;5075356;28;20534;-73
2021/11/25 13:31:37;;;;;;;37.70;18.30;;;;;;;;;;5074993;28;20542;-73
2021/11/25 13:34:43;;;;;;;33.53;17.07;;;;;;;;;;5075213;28;20887;-73
2021/11/25 13:37:54;;;;;;;33.33;17.00;;;;;;;;;;5075232;28;20541;-73
2021/11/25 13:40:59;;;;;;;33.20;16.53;;;;;;;;;;5063005;28;20656;-73
2021/11/25 13:44:03;;;;;;;33.10;15.70;;;;;;;;;;5075344;28;20542;-73
2021/11/25 13:47:11;;;;;;;38.33;18.67;;;;;;;;;;5062619;28;20551;-73
2021/11/25 13:50:18;;;;;;;36.77;17.13;;;;;;;;;;5062210;28;20634;-72
2021/11/25 13:53:23;;;;;;;31.63;15.53;;;;;;;;;;5062601;28;20542;-73
2021/11/25 13:56:28;;;;;;;33.83;17.50;;;;;;;;;;5062455;28;20546;-73
2021/11/25 13:59:33;;;;;;;39.40;19.13;;;;;;;;;;5062464;28;21224;-73
2021/11/25 14:02:38;;;;;;;37.93;16.20;;;;;;;;;;5073566;28;20558;-73
2021/11/25 14:05:45;;;;;;;37.30;18.43;;;;;;;;;;5074580;28;20538;-73
2021/11/25 14:08:52;;;;;;;40.17;19.10;;;;;;;;;;5074221;28;21157;-73
2021/11/25 14:11:59;;;;;;;38.10;20.07;;;;;;;;;;5061899;28;20597;-73
2021/11/25 14:15:06;;;;;;;34.80;16.20;;;;;;;;;;5074442;28;20596;-73
2021/11/25 14:18:13;;;;;;;36.07;16.27;;;;;;;;;;5074442;28;20558;-73
2021/11/25 14:21:36;;;;;;;31.73;14.40;;;;;;;;;;5074595;28;20860;-73
2021/11/25 14:24:40;;;;;;;33.60;16.27;;;;;;;;;;5074108;28;20554;-73
2021/11/25 14:31:15;;;;;;;39.23;17.43;;;;;;;;;;5076487;28;20636;-73
2021/11/25 14:34:35;;;;;;;27.70;14.33;;;;;;;;;;5062074;28;20526;-73
2021/11/25 14:37:48;;;;;;;40.07;17.97;;;;;;;;;;5092962;28;20570;-72
2021/11/25 14:41:00;;;;;;;36.27;17.47;;;;;;;;;;5081253;28;21005;-72
2021/11/25 14:44:13;;;;;;;35.87;16.53;;;;;;;;;;5093458;28;20620;-73
2021/11/25 14:47:17;;;;;;;35.70;16.87;;;;;;;;;;5093469;28;20597;-72
2021/11/25 14:50:33;;;;;;;35.77;17.50;;;;;;;;;;5080798;28;20647;-73
2021/11/25 14:53:40;;;;;;;49.23;18.27;;;;;;;;;;5066488;28;20649;-73
2021/11/25 14:56:48;;;;;;;43.33;18.80;;;;;;;;;;5090267;28;20564;-72
2021/11/25 15:00:05;;;;;;;47.43;19.03;;;;;;;;;;5089806;28;21249;-72
2021/11/25 15:03:10;;;;;;;38.10;17.90;;;;;;;;;;5089421;28;20592;-73
2021/11/25 15:06:14;;;;;;;43.53;19.17;;;;;;;;;;5088267;28;20585;-72
2021/11/25 15:09:21;;;;;;;44.43;18.50;;;;;;;;;;5065648;28;20640;-73
2021/11/25 15:12:25;;;;;;;50.27;18.70;;;;;;;;;;5075369;28;21164;-72
2021/11/25 15:15:29;;;;;;;42.47;19.27;;;;;;;;;;5076990;28;20592;-72
2021/11/25 15:18:34;;;;;;;61.83;19.80;;;;;;;;;;5088598;28;20581;-73
2021/11/25 15:21:40;;;;;;;46.73;20.50;;;;;;;;;;5076959;28;20557;-73
2021/11/25 15:24:44;;;;;;;51.27;19.83;;;;;;;;;;5089524;28;20565;-72
2021/11/25 15:27:49;;;;;;;64.30;26.00;;;;;;;;;;5069501;28;20577;-72
2021/11/25 15:30:53;;;;;;;114.30;40.10;;;;;;;;;;5089050;28;20636;-73
2021/11/25 15:33:57;;;;;;;93.83;35.83;;;;;;;;;;5089416;28;20572;-73
2021/11/25 15:37:01;;;;;;;89.43;40.10;;;;;;;;;;5082443;28;20596;-73
2021/11/25 15:40:06;;;;;;;71.13;30.63;;;;;;;;;;5076683;28;20660;-73
2021/11/25 15:43:12;;;;;;;71.37;27.53;;;;;;;;;;5076817;28;20588;-73
2021/11/25 15:46:18;;;;;;;69.93;25.80;;;;;;;;;;5089349;28;20557;-73
2021/11/25 15:49:23;;;;;;;66.33;26.27;;;;;;;;;;5088765;28;20648;-73
2021/11/25 15:52:27;;;;;;;59.97;22.97;;;;;;;;;;5089290;28;20593;-73
2021/11/25 15:55:32;;;;;;;67.80;27.17;;;;;;;;;;5089223;28;20569;-73
2021/11/25 15:58:36;;;;;;;56.07;23.80;;;;;;;;;;5076588;28;20950;-73
2021/11/25 16:01:40;;;;;;;57.40;23.43;;;;;;;;;;5089206;28;20616;-73
2021/11/25 16:04:45;;;;;;;51.20;22.70;;;;;;;;;;5075800;28;20588;-73
2021/11/25 16:07:49;;;;;;;51.10;21.90;;;;;;;;;;5088546;28;20581;-72
2021/11/25 16:10:53;;;;;;;49.57;20.50;;;;;;;;;;5076168;28;20648;-72
2021/11/25 16:14:03;;;;;;;48.63;21.27;;;;;;;;;;5088958;28;20593;-72
2021/11/25 16:17:08;;;;;;;46.43;19.97;;;;;;;;;;5076240;28;20568;-72
2021/11/25 16:20:12;;;;;;;45.03;20.40;;;;;;;;;;5088812;28;21059;-72
2021/11/25 16:23:16;;;;;;;48.07;20.53;;;;;;;;;;5056269;28;21109;-72
2021/11/25 16:26:20;;;;;;;44.37;20.50;;;;;;;;;;5070868;28;20566;-72
2021/11/25 16:29:25;;;;;;;47.13;20.53;;;;;;;;;;5091474;28;20974;-71
2021/11/25 16:32:29;;;;;;;47.53;20.33;;;;;;;;;;5079628;28;20588;-72
2021/11/25 16:35:33;;;;;;;47.47;20.00;;;;;;;;;;5080036;28;21250;-71
2021/11/25 16:38:37;;;;;;;42.67;19.83;;;;;;;;;;5081195;28;21167;-71
2021/11/25 16:41:42;;;;;;;38.43;19.23;;;;;;;;;;5092193;28;20636;-71
2021/11/25 16:44:47;;;;;;;45.83;20.57;;;;;;;;;;5092631;28;20552;-71
2021/11/25 16:51:15;;;;;;;44.10;19.27;;;;;;;;;;5092368;28;21017;-71
2021/11/25 16:54:21;;;;;;;50.67;21.60;;;;;;;;;;5091991;28;20580;-71
2021/11/25 16:57:26;;;;;;;54.17;24.03;;;;;;;;;;5092211;28;20588;-71
2021/11/25 17:00:31;;;;;;;46.13;22.67;;;;;;;;;;5071693;28;21239;-73
2021/11/25 17:03:35;;;;;;;40.57;19.27;;;;;;;;;;5091413;28;20593;-73
2021/11/25 17:06:40;;;;;;;40.67;21.83;;;;;;;;;;5079269;28;20600;-73
2021/11/25 17:09:45;;;;;;;45.43;20.23;;;;;;;;;;5092347;28;20628;-72
2021/11/25 17:12:49;;;;;;;46.07;21.20;;;;;;;;;;5079716;28;20584;-72
2021/11/25 17:15:54;;;;;;;52.80;23.87;;;;;;;;;;5071888;28;20962;-72
2021/11/25 17:18:58;;;;;;;49.07;22.83;;;;;;;;;;5071752;28;20558;-72
2021/11/25 17:22:03;;;;;;;42.00;20.83;;;;;;;;;;5067808;28;21171;-73
2021/11/25 17:25:07;;;;;;;55.17;28.87;;;;;;;;;;5087214;28;20605;-73
2021/11/25 17:28:12;;;;;;;48.97;26.27;;;;;;;;;;5076793;28;20605;-73
2021/11/25 17:31:20;;;;;;;44.63;22.23;;;;;;;;;;5087992;28;20978;-73
2021/11/25 17:34:24;;;;;;;38.87;19.87;;;;;;;;;;5070761;28;20602;-72
2021/11/25 17:37:28;;;;;;;45.07;20.80;;;;;;;;;;5078593;28;20627;-73
2021/11/25 17:40:32;;;;;;;44.97;21.03;;;;;;;;;;5089254;28;20648;-73
2021/11/25 17:43:39;;;;;;;49.77;21.83;;;;;;;;;;5071241;28;20566;-73
2021/11/25 17:46:43;;;;;;;53.30;27.37;;;;;;;;;;5072413;28;20590;-73
2021/11/25 17:49:47;;;;;;;50.73;22.63;;;;;;;;;;5075286;28;20671;-73
2021/11/25 17:52:54;;;;;;;41.07;21.00;;;;;;;;;;5090901;28;20556;-73
2021/11/25 17:55:58;;;;;;;98.37;43.17;;;;;;;;;;5076120;28;20585;-73
2021/11/25 17:59:03;;;;;;;54.00;23.97;;;;;;;;;;5080903;28;20593;-73
2021/11/25 18:02:08;;;;;;;52.63;23.23;;;;;;;;;;5089131;28;20632;-72
2021/11/25 18:05:15;;;;;;;47.77;22.07;;;;;;;;;;5090312;28;20596;-72
2021/11/25 18:08:19;;;;;;;49.23;25.53;;;;;;;;;;5078245;28;20584;-73
2021/11/25 18:11:28;;;;;;;48.57;24.20;;;;;;;;;;5069191;28;20633;-73
2021/11/25 18:14:33;;;;;;;45.87;21.87;;;;;;;;;;5066077;28;20596;-73
2021/11/25 18:17:37;;;;;;;49.63;22.87;;;;;;;;;;5090088;28;21148;-73
2021/11/25 18:20:42;;;;;;;48.60;21.10;;;;;;;;;;5070227;28;20653;-72
2021/11/25 18:23:47;;;;;;;45.20;20.73;;;;;;;;;;5070828;28;20562;-74
2021/11/25 18:26:51;;;;;;;46.70;21.27;;;;;;;;;;5070607;28;20566;-72
2021/11/25 18:29:56;;;;;;;46.03;21.60;;;;;;;;;;5068323;28;20657;-74
2021/11/25 18:33:00;;;;;;;43.70;21.03;;;;;;;;;;5087329;28;20589;-74
2021/11/25 18:36:04;;;;;;;47.87;19.67;;;;;;;;;;5090532;28;20589;-74
2021/11/25 18:39:08;;;;;;;44.20;21.23;;;;;;;;;;5066281;28;20589;-73
2021/11/25 18:42:13;;;;;;;40.30;19.90;;;;;;;;;;5090003;28;20617;-73
2021/11/25 18:45:19;;;;;;;42.00;20.03;;;;;;;;;;5090516;28;20564;-73
2021/11/25 18:48:26;;;;;;;41.37;19.10;;;;;;;;;;5089123;28;20585;-73
2021/11/25 18:51:30;;;;;;;40.40;20.47;;;;;;;;;;5053486;28;20616;-73
2021/11/25 18:54:35;;;;;;;38.17;17.97;;;;;;;;;;5089492;28;20553;-72
2021/11/25 18:57:43;;;;;;;38.37;17.77;;;;;;;;;;5086630;28;20581;-72
2021/11/25 19:00:50;;;;;;;42.23;19.87;;;;;;;;;;5089295;28;21009;-72
2021/11/25 19:03:55;;;;;;;41.63;19.20;;;;;;;;;;5088753;28;20620;-72
2021/11/25 19:06:59;;;;;;;41.13;19.63;;;;;;;;;;5078233;28;20601;-72
2021/11/25 19:10:04;;;;;;;39.13;18.43;;;;;;;;;;5076366;28;20671;-73
2021/11/25 19:13:08;;;;;;;43.27;20.10;;;;;;;;;;5076756;28;20593;-74
2021/11/25 19:16:16;;;;;;;43.70;20.17;;;;;;;;;;5082253;28;21164;-74
2021/11/25 19:19:20;;;;;;;45.40;18.87;;;;;;;;;;5065494;28;20644;-74
2021/11/25 19:22:25;;;;;;;41.97;19.13;;;;;;;;;;5077066;28;20604;-73
2021/11/25 19:25:30;;;;;;;41.40;18.90;;;;;;;;;;5088726;28;20906;-74